createdAt,value
2022-12-23T00:03:30.246Z,5.00
2022-12-23T00:08:32.214Z,4.90
2022-12-23T00:13:52.721Z,4.80
2022-12-23T00:18:55.156Z,4.70
2022-12-23T00:23:57.105Z,4.60
2022-12-23T00:28:59.119Z,4.40
2022-12-23T00:34:01.022Z,4.40
2022-12-23T00:39:21.387Z,4.40
2022-12-23T00:44:23.509Z,4.40
2022-12-23T00:49:43.602Z,4.40
2022-12-23T00:54:45.510Z,4.30
2022-12-23T00:59:47.445Z,4.30
2022-12-23T01:05:07.762Z,4.40
2022-12-23T01:10:10.029Z,4.20
2022-12-23T01:15:11.965Z,4.30
2022-12-23T01:20:13.913Z,4.30
2022-12-23T01:25:16.096Z,4.30
2022-12-23T01:30:18.096Z,4.20
2022-12-23T01:35:20.029Z,4.30
2022-12-23T01:40:22.014Z,4.30
2022-12-23T01:45:33.383Z,4.30
2022-12-23T01:50:39.874Z,4.30
2022-12-23T01:55:44.796Z,4.30
2022-12-23T02:01:05.433Z,4.20
2022-12-23T02:06:27.553Z,4.30
2022-12-23T02:12:09.961Z,4.20
2022-12-23T02:17:27.860Z,4.30
2022-12-23T02:22:41.798Z,4.30
2022-12-23T02:27:55.450Z,4.20
2022-12-23T02:33:26.798Z,4.10
2022-12-23T02:38:56.539Z,4.10
2022-12-23T02:44:08.062Z,4.00
2022-12-23T02:49:15.344Z,4.00
2022-12-23T02:54:24.846Z,4.10
2022-12-23T02:59:33.696Z,4.10
2022-12-23T03:04:35.717Z,4.20
2022-12-23T03:09:48.938Z,4.10
2022-12-23T03:15:13.367Z,4.00
2022-12-23T03:20:15.284Z,3.80
2022-12-23T03:25:23.463Z,3.90
2022-12-23T03:30:26.103Z,3.90
2022-12-23T03:35:40.912Z,4.00
2022-12-23T03:40:46.908Z,4.10
2022-12-23T03:45:56.636Z,4.00
2022-12-23T03:51:04.885Z,3.80
2022-12-23T03:56:15.055Z,3.90
2022-12-23T04:01:31.087Z,3.90
2022-12-23T04:06:49.240Z,3.90
2022-12-23T04:11:52.332Z,3.70
2022-12-23T04:16:58.268Z,3.60
2022-12-23T04:22:00.302Z,3.50
2022-12-23T04:27:02.220Z,3.40
2022-12-23T04:32:04.544Z,3.20
2022-12-23T04:37:06.561Z,2.90
2022-12-23T04:42:08.539Z,3.10
2022-12-23T04:47:10.554Z,2.80
2022-12-23T04:52:12.661Z,2.90
2022-12-23T04:57:15.481Z,3.00
2022-12-23T05:02:17.535Z,2.40
2022-12-23T05:07:19.587Z,2.00
2022-12-23T05:12:21.522Z,2.00
2022-12-23T05:17:23.833Z,2.10
2022-12-23T05:22:25.804Z,2.10
2022-12-23T05:27:27.716Z,2.10
2022-12-23T05:32:29.816Z,2.00
2022-12-23T05:37:32.022Z,1.90
2022-12-23T05:42:33.910Z,2.00
2022-12-23T05:47:36.221Z,1.70
2022-12-23T05:52:38.446Z,1.80
2022-12-23T05:57:40.363Z,1.80
2022-12-23T06:02:47.251Z,1.80
2022-12-23T06:07:52.002Z,1.50
2022-12-23T06:12:53.962Z,1.40
2022-12-23T06:17:56.248Z,1.40
2022-12-23T06:22:58.157Z,1.60
2022-12-23T06:28:00.121Z,1.90
2022-12-23T06:33:02.450Z,1.90
2022-12-23T06:38:08.765Z,1.80
2022-12-23T06:43:13.750Z,1.90
2022-12-23T06:48:16.538Z,2.00
2022-12-23T06:53:18.447Z,2.00
2022-12-23T06:58:20.425Z,2.00
2022-12-23T07:03:22.606Z,2.10
2022-12-23T07:08:24.678Z,2.20
2022-12-23T07:13:27.389Z,2.30
2022-12-23T07:18:29.327Z,2.30
2022-12-23T07:23:31.549Z,2.40
2022-12-23T07:28:33.542Z,2.50
2022-12-23T07:33:35.530Z,2.40
2022-12-23T07:38:37.526Z,2.40
2022-12-23T07:43:39.553Z,2.60
2022-12-23T07:48:42.077Z,2.60
2022-12-23T07:53:48.853Z,2.60
2022-12-23T08:04:12.052Z,2.90
2022-12-23T08:09:17.509Z,3.10
2022-12-23T08:14:21.434Z,3.30
2022-12-23T08:20:12.269Z,3.40
2022-12-23T08:26:07.109Z,3.30
2022-12-23T08:31:27.366Z,3.50
2022-12-23T08:37:12.052Z,3.60
2022-12-23T08:42:33.610Z,3.70
2022-12-23T08:47:42.831Z,3.90
2022-12-23T08:52:48.354Z,3.70
2022-12-23T08:58:22.114Z,3.50
2022-12-23T09:03:27.417Z,3.40
2022-12-23T09:08:43.065Z,3.80
2022-12-23T09:13:50.577Z,4.20
2022-12-23T09:18:57.742Z,4.60
2022-12-23T09:24:02.221Z,5.90
2022-12-23T09:29:09.603Z,6.20
2022-12-23T09:34:12.556Z,6.40
2022-12-23T09:39:14.525Z,6.60
2022-12-23T09:44:19.470Z,6.70
2022-12-23T09:49:22.888Z,6.70
2022-12-23T09:54:46.001Z,6.60
2022-12-23T10:00:07.150Z,6.70
2022-12-23T10:05:27.615Z,6.80
2022-12-23T10:10:42.815Z,6.70
2022-12-23T10:15:48.494Z,6.70
2022-12-23T10:21:07.608Z,6.80
2022-12-23T10:26:24.414Z,6.80
2022-12-23T10:31:41.192Z,6.80
2022-12-23T10:36:54.467Z,6.80
2022-12-23T10:42:05.440Z,6.90
2022-12-23T10:47:38.392Z,6.90
2022-12-23T10:52:44.293Z,7.00
2022-12-23T10:57:46.524Z,7.00
2022-12-23T11:03:27.740Z,6.80
2022-12-23T11:08:31.390Z,6.80
2022-12-23T11:13:42.027Z,6.80
2022-12-23T11:19:06.818Z,6.80
2022-12-23T11:24:19.822Z,6.90
2022-12-23T11:29:30.809Z,6.80
2022-12-23T11:34:38.155Z,6.80
2022-12-23T11:39:46.908Z,6.70
2022-12-23T11:44:52.022Z,6.60
2022-12-23T11:49:57.080Z,6.50
2022-12-23T11:55:04.240Z,6.60
2022-12-23T12:00:16.716Z,6.70
2022-12-23T12:05:30.795Z,6.80
2022-12-23T12:10:36.389Z,6.90
2022-12-23T12:15:57.509Z,7.30
2022-12-23T12:21:05.549Z,7.50
2022-12-23T12:26:16.877Z,7.40
2022-12-23T12:31:56.896Z,7.30
2022-12-23T12:37:15.917Z,7.30
2022-12-23T12:42:40.879Z,7.10
2022-12-23T12:48:08.691Z,7.00
2022-12-23T12:53:18.669Z,7.00
2022-12-23T12:58:22.657Z,6.90
2022-12-23T13:03:49.382Z,6.90
2022-12-23T13:09:02.137Z,6.80
2022-12-23T13:14:50.090Z,6.80
2022-12-23T13:20:18.655Z,6.60
2022-12-23T13:25:54.754Z,6.50
2022-12-23T13:31:21.480Z,6.60
2022-12-23T13:36:34.629Z,6.80
2022-12-23T13:41:44.367Z,6.80
2022-12-23T13:46:55.245Z,6.80
2022-12-23T13:52:10.228Z,6.50
2022-12-23T13:57:29.818Z,6.30
2022-12-23T14:02:37.947Z,6.50
2022-12-23T14:07:44.797Z,6.40
2022-12-23T14:12:47.770Z,6.20
2022-12-23T14:18:09.833Z,6.10
2022-12-23T14:23:33.265Z,6.10
2022-12-23T14:28:37.921Z,6.10
2022-12-23T14:33:39.861Z,6.10
2022-12-23T14:38:42.085Z,6.00
2022-12-23T14:43:46.754Z,6.00
2022-12-23T14:48:48.598Z,6.00
2022-12-23T14:53:59.371Z,5.80
2022-12-23T14:59:33.517Z,5.90
2022-12-23T15:04:56.653Z,5.90
2022-12-23T15:10:01.310Z,5.80
2022-12-23T15:15:25.270Z,5.80
2022-12-23T15:20:27.237Z,5.70
2022-12-23T15:25:32.460Z,5.80
2022-12-23T15:30:45.980Z,5.80
2022-12-23T15:35:48.857Z,5.70
2022-12-23T15:41:15.031Z,5.70
2022-12-23T15:46:29.305Z,5.60
2022-12-23T15:52:07.243Z,5.60
2022-12-23T15:57:00.342Z,5.60
2022-12-23T16:03:00.336Z,5.60
2022-12-23T16:08:16.276Z,5.60
2022-12-23T16:13:20.809Z,5.50
2022-12-23T16:18:34.412Z,5.40
2022-12-23T16:23:37.392Z,5.40
2022-12-23T16:28:45.727Z,5.20
2022-12-23T16:33:47.713Z,5.40
2022-12-23T16:38:51.440Z,5.50
2022-12-23T16:43:53.642Z,5.70
2022-12-23T16:49:00.221Z,5.70
2022-12-23T16:54:03.194Z,5.80
2022-12-23T16:59:05.266Z,5.90
2022-12-23T17:04:08.269Z,5.90
2022-12-23T17:09:11.307Z,5.90
2022-12-23T17:14:23.344Z,5.90
2022-12-23T17:19:28.896Z,5.90
2022-12-23T17:24:32.395Z,5.70
2022-12-23T17:29:34.414Z,5.60
2022-12-23T17:34:36.392Z,5.60
2022-12-23T17:39:38.413Z,5.60
2022-12-23T17:44:40.382Z,5.60
2022-12-23T17:49:43.184Z,5.60
2022-12-23T17:54:46.422Z,5.60
2022-12-23T17:59:48.812Z,5.60
2022-12-23T18:04:51.281Z,5.60
2022-12-23T18:09:53.590Z,5.50
2022-12-23T18:14:56.524Z,5.50
2022-12-23T18:19:58.692Z,5.50
2022-12-23T18:25:00.627Z,5.50
2022-12-23T18:30:02.582Z,5.60
2022-12-23T18:35:24.329Z,5.60
2022-12-23T18:40:32.728Z,5.60
2022-12-23T18:45:41.708Z,5.70
2022-12-23T18:50:44.373Z,5.50
2022-12-23T18:55:46.432Z,5.50
2022-12-23T19:00:50.322Z,5.60
2022-12-23T19:05:53.463Z,5.60
2022-12-23T19:10:55.807Z,5.50
2022-12-23T19:15:57.793Z,5.60
2022-12-23T19:21:04.203Z,5.60
2022-12-23T19:26:06.351Z,5.60
2022-12-23T19:31:10.320Z,5.60
2022-12-23T19:36:28.426Z,5.70
2022-12-23T19:41:31.372Z,5.60
2022-12-23T19:46:33.488Z,5.40
2022-12-23T19:51:35.557Z,5.40
2022-12-23T19:56:39.026Z,5.40
2022-12-23T20:01:41.028Z,5.40
2022-12-23T20:06:44.016Z,5.40
2022-12-23T20:11:47.866Z,5.20
2022-12-23T20:16:49.862Z,5.10
2022-12-23T20:21:53.966Z,5.10
2022-12-23T20:26:56.097Z,4.90
2022-12-23T20:31:58.404Z,4.80
2022-12-23T20:37:02.766Z,4.70
2022-12-23T20:42:04.719Z,4.70
2022-12-23T20:47:07.028Z,4.70
2022-12-23T20:52:09.124Z,4.70
2022-12-23T20:57:11.031Z,4.70
2022-12-23T21:02:14.426Z,4.40
2022-12-23T21:07:16.757Z,4.40
2022-12-23T21:12:19.577Z,4.20
2022-12-23T21:17:23.580Z,4.20
2022-12-23T21:22:25.518Z,3.70
2022-12-23T21:27:27.476Z,3.60
2022-12-23T21:32:29.432Z,3.40
2022-12-23T21:37:32.274Z,3.50
2022-12-23T21:42:34.302Z,3.50
2022-12-23T21:47:36.240Z,3.50
2022-12-23T21:52:38.190Z,3.40
2022-12-23T21:57:40.155Z,3.50
2022-12-23T22:02:42.230Z,3.40
2022-12-23T22:07:44.288Z,3.40
2022-12-23T22:12:46.205Z,3.30
2022-12-23T22:17:48.134Z,3.10
2022-12-23T22:22:50.127Z,3.20
2022-12-23T22:27:52.101Z,3.20
2022-12-23T22:32:54.193Z,3.20
2022-12-23T22:37:56.167Z,3.20
2022-12-23T22:42:58.070Z,3.20
2022-12-23T22:48:00.050Z,3.10
2022-12-23T22:53:01.981Z,3.00
2022-12-23T22:58:03.922Z,3.10
2022-12-23T23:03:05.880Z,3.20
2022-12-23T23:08:07.768Z,3.20
2022-12-23T23:13:09.664Z,3.20
2022-12-23T23:18:11.557Z,3.10
2022-12-23T23:23:13.485Z,3.20
2022-12-23T23:28:15.578Z,3.10
2022-12-23T23:33:17.695Z,3.20
2022-12-23T23:38:19.617Z,3.20
2022-12-23T23:43:21.927Z,3.20
2022-12-23T23:48:23.881Z,3.30
2022-12-23T23:53:25.936Z,3.10
2022-12-23T23:58:27.847Z,3.10
